Tucson, AZ

3:02 PM MST on December 17, 2014 (GMT -0700)
Tucson International | Change Station
CLOSE
Current Station
Airport
Location: Tucson,
Elevation: 2556 ft
Nearby Weather Stations

Elev 2556 ft 32.13 °N, 110.96 °W | Updated 9 minutes ago

Overcast
Overcast
55 °F
Feels Like 55 °F
N
6
Wind Variable Wind from SSW

Today
High -- | Low -- °F
--% Chance of Precip.
Yesterday
High -- | Low -- °F
Precip. -- in
7:18 AM 5:21 PM
Waning Crescent, 19% visible
Pressure 30.00 in
Visibility 10.0 miles
Clouds Overcast 6000 ft
Dew Point 46 °F
Humidity 72%
Rainfall 0.11 in
Snow Depth Not available.
UV 1 out of 12
Pollen 4.70 out of 12
Air Quality Not available.
Flu Activity Not available.
METAR KTUS 172153Z 21005KT 10SM -RA OVC060 13/08 A3006 RMK AO2 RAB2057E13B48 SLP159 P0002 T01280078 $

More Conditions Fewer Conditions

Pressure 30.00 in
Visibility 10.0 miles
Clouds Overcast 6000 ft
Dew Point 46 °F
Humidity 72%
Rainfall 0.11 in
Snow Depth Not available.
UV 1 out of 12
Pollen 4.70 out of 12
Air Quality Not available.
Flu Activity Not available.
METAR KTUS 172153Z 21005KT 10SM -RA OVC060 13/08 A3006 RMK AO2 RAB2057E13B48 SLP159 P0002 T01280078 $

More Conditions Fewer Conditions

Nowcast | as of 12:32 PM MST on December 17, 2014

Light showers will be on the increase this afternoon as the next wave in rain moves in from the west. Rainfall amounts will be on the light side...generally less than one-tenth of an inch.

×

10-Day Weather Forecast

Almanac

Astronomy

Dec. 17, 2014 Rise Set
Actual Time
Civil Twilight
Nautical Twilight
Astronomical Twilight
Moon
Length of Visible Light
Length of Day
Tomorrow will be .
, % of the Moon is Illuminated

Today's Extremes

State Highs State Lows

Community

WunderPhotos

Upload Photos

1,778,808 photos uploaded!

WunderBlogs® & News

Nearby

Air Quality

  Air Quality AQ Index Pollutant
Not available.

Snow Depth

Station Depth Elevation

Earthquake Activity

City Distance Mag. Time & Date
Minimum magnitude displayed is 2.5.

Coastal Water Temperatures

Place Temperature

Nearby Weather Stations